Create Custom Reports and Graphics: Custom Report

Upper Lake (UPL)

Current Conditions

5/24/19 10:00 PM (-07:00)
Updated Every 15 Minutes
Temp 60.6 °F   4.9
Avg CanT 61.0 °F   5.4
RH 82 %   18
Dew Pt 54.9 °F   0.7
Wet Bulb 58.3 °F   2.7
Wind Dir WNW | 293 °
Wind Spd 3.8 mph   2.7
Wind Gust 12.4 mph   9.4
Daily Min Temp 46.8 °F   2.3
Daily Max Temp 78.0 °F   1.0
Latest Rain 0.00 In
Daily Rain 0.00 In

Upper Lake

Last 24 Hours

Hourly Data | America/Los_Angeles
as of 5/24/19 10:34 PM PDT
Date & Time Temp (°F) Avg CanT (°F) RH (%) Dew Pt (°F) Wet Bulb (°F) Leaf Wet (mins) Wind Gst Dir (°) Wind Spd (mph) Wind Gust (mph) Latest Rain (In) Daily Rain (In) Daily Min Temp (°F) Daily Max Temp (°F) Min CanT (°F) Max CanT (°F)
5/24/19 - 2200 60.6 60.8 81 54.9 58.3 0.0 NW | 313 2.5 12.4 0.00 0.00 46.8 78.0 47.0 77.2
5/24/19 - 2100 62.5 62.6 77 55.2 59.1 0.0 WSW | 253 3.1 11.1 0.00 0.00 46.8 78.0 47.0 77.2
5/24/19 - 2000 66.6 67.3 67 55.2 60.4 0.0 NW | 310 2.8 13.6 0.00 0.00 46.8 78.0 47.0 77.2
5/24/19 - 1900 70.2 70.5 58 54.5 61.0 0.0 W | 277 2.1 6.9 0.00 0.00 46.8 78.0 47.0 77.2
5/24/19 - 1800 72.4 71.8 57 56.2 62.6 0.0 NW | 308 3.0 10.6 0.00 0.00 46.8 78.0 47.0 77.2
5/24/19 - 1700 75.2 74.6 55 57.7 64.2 0.0 NW | 324 3.8 15.4 0.00 0.00 46.8 78.0 47.0 77.2
5/24/19 - 1600 76.8 75.9 53 58.2 64.9 0.0 SSW | 211 2.4 8.0 0.00 0.00 46.8 78.0 47.0 77.2
5/24/19 - 1500 74.4 73.4 60 59.4 65.2 0.0 NW | 323 2.9 11.0 0.00 0.00 46.8 76.2 47.0 75.1
5/24/19 - 1400 73.7 72.6 67 61.9 67.0 0.0 W | 263 2.6 9.8 0.00 0.00 46.8 74.4 47.0 73.5
5/24/19 - 1300 71.3 70.2 69 60.6 65.5 0.0 S | 171 2.3 6.4 0.00 0.00 46.8 72.6 47.0 71.7
5/24/19 - 1200 69.7 67.8 75 61.4 65.7 0.0 SSE | 161 2.4 8.6 0.00 0.00 46.8 70.9 47.0 69.4
5/24/19 - 1100 67.7 64.9 79 61.0 64.8 0.0 SW | 236 2.1 8.3 0.00 0.00 46.8 69.1 47.0 66.4
5/24/19 - 1000 64.9 62.3 83 59.7 63.1 0.0 S | 191 2.2 6.1 0.00 0.00 46.8 66.7 47.0 63.7
5/24/19 - 0900 60.5 59.1 93 58.4 60.2 5.0 S | 176 1.3 5.0 0.00 0.00 46.8 63.9 47.0 61.0
5/24/19 - 0800 53.5 53.8 100 53.5 53.5 60.0 NE | 50 0.9 3.3 0.00 0.00 46.8 56.4 47.0 56.8
5/24/19 - 0700 48.2 48.1 100 48.2 48.2 60.0 NNW | 337 0.0 1.4 0.00 0.00 46.8 50.9 47.0 51.4
5/24/19 - 0600 47.2 47.4 100 47.2 47.2 60.0 WNW | 299 0.2 1.8 0.00 0.00 46.9 50.9 47.2 51.4
5/24/19 - 0500 48.0 48.2 100 48.0 48.0 60.0 NW | 305 0.4 2.0 0.00 0.00 47.4 50.9 47.5 51.4
5/24/19 - 0400 48.7 48.8 100 48.7 48.7 60.0 NW | 306 0.6 2.3 0.00 0.00 48.3 50.9 48.4 51.4
5/24/19 - 0300 49.6 49.8 100 49.6 49.6 60.0 W | 277 0.4 2.1 0.00 0.00 49.0 50.9 49.2 51.4
5/24/19 - 0200 50.6 50.8 100 50.7 50.6 60.0 W | 273 0.5 2.1 0.00 0.00 50.2 50.9 50.4 51.4
5/24/19 - 0100 51.7 51.8 100 51.7 51.7 60.0 WNW | 296 0.3 2.0 0.00 0.04 49.1 76.9 49.2 74.7
5/24/19 - 0000 53.0 53.1 100 53.0 53.0 60.0 WNW | 292 0.6 2.0 0.00 0.04 49.1 76.9 49.2 74.7
5/23/19 - 2300 55.0 55.0 100 55.0 55.0 60.0 NW | 325 0.6 4.2 0.00 0.04 49.1 76.9 49.2 74.7
5/23/19 - 2200 56.6 56.6 100 56.6 56.6 60.0 NW | 320 0.6 3.0 0.00 0.04 49.1 76.9 49.2 74.7
Max 76.8 75.9 100 61.9 67.0 60.0 - 3.8 15.4 0.00 0.04 50.2 78.0 50.4 77.2
Avg 61.1 60.7 83 55.1 57.8 26.6 - 1.6 6.4 0.00 - - - - -
Min 47.2 47.4 53 47.2 47.2 0.0 - 0.0 1.4 0.00 0.00 46.8 50.9 47.0 51.4
Total - - - - - - - - - 0.00 - - - - -

Upper Lake Daily Summaries

Last 30 Days

Daily Data | America/Los_Angeles
as of 5/24/19 10:34 PM PDT
Date Daily Max Temp (°F) Max Temp Time Daily Min Temp (°F) Min Temp Time Daily Rain (In) Seasonal Rainfall (In) Wind Spd (mph) Daily Max Wind (mph) Max Wind Time Max Wind Dir (°) Dew Pt (°F) Max RH (%) Min RH (%) Chill Hrs <=45 (hrs) Chill Hrs Seas (hrs) Hrs <= 32F (hrs) Hrs <= 28F (hrs) GDDs (DL) Seas GDDs (DL) Leaf Wet (hrs) Max CanT (°F) Min CanT (°F) Hrs 70-85F (hrs) Hrs > 95F (hrs) Powdery Mildew Stress (pts) Degree Hrs (hrs) Bat Volt Min Day (V)
5/23/19 76.9 1809 49.1 0545 0.04 46.58 1.6 10.5 0855 W | 272 53.0 100 33 0.0 1,717.0 0.0 0.0 11.10 470 11.3 74.7 49.2 1.95 0.00 0 39.8 12.06
5/22/19 73.7 1658 41.3 0501 0.01 46.54 2.8 15.7 1139 NW | 311 50.6 100 48 4.8 1,717.0 0.0 0.0 8.90 459 7.6 72.8 41.4 1.50 0.00 10 24.0 12.00
5/21/19 54.2 1452 46.8 0416 0.19 46.53 2.6 19.7 1849 WNW | 294 48.8 100 83 0.0 1,717.0 0.0 0.0 0.80 450 22.5 54.8 46.7 0.00 0.00 20 0.0 12.00
5/20/19 65.7 1509 41.4 0205 0.07 46.34 2.0 17.1 1726 W | 277 46.0 100 40 5.7 1,717.0 0.0 0.0 4.88 449 10.4 64.8 41.8 0.00 0.00 30 0.0 12.08
5/19/19 57.2 1529 42.6 0411 0.25 46.27 2.3 14.6 1222 SSW | 202 45.9 100 63 8.0 1,717.0 0.0 0.0 1.62 444 11.9 56.9 42.8 0.00 0.00 40 0.0 11.97
5/18/19 50.8 1549 43.7 0249 0.92 46.02 2.0 20.2 1620 ESE | 120 46.8 100 86 5.3 1,717.0 0.0 0.0 0.03 443 22.8 51.0 43.9 0.00 0.00 50 0.0 12.01
5/17/19 65.9 1617 45.4 0059 0.06 45.10 1.9 12.3 1211 NW | 316 47.1 100 39 0.0 1,717.0 0.0 0.0 4.33 443 9.7 65.5 45.4 0.00 0.00 60 0.0 12.01
5/16/19 51.8 1459 46.0 0259 0.43 45.04 2.4 18.1 1614 WNW | 302 48.2 100 94 0.0 1,717.0 0.0 0.0 0.14 438 24.0 51.2 46.2 0.00 0.00 70 0.0 11.97
5/15/19 58.4 1247 47.5 0028 1.61 44.61 3.0 17.1 1957 SE | 137 53.4 100 86 0.0 1,717.0 0.0 0.0 3.80 438 18.1 58.5 47.6 0.00 0.00 80 0.0 12.05
5/14/19 63.2 1516 47.8 0414 0.00 43.00 1.8 12.5 0847 W | 260 51.3 100 62 0.0 1,717.0 0.0 0.0 6.28 434 5.6 62.0 48.6 0.00 0.00 90 0.0 12.14
5/13/19 80.4 1427 43.0 0628 0.00 43.00 2.2 12.3 0859 W | 265 45.8 100 23 2.2 1,717.0 0.0 0.0 12.76 428 0.5 78.1 43.1 7.46 0.00 100 78.8 12.13
5/12/19 81.6 1502 44.5 0628 0.00 43.00 2.2 14.9 1845 WNW | 299 43.6 100 19 0.7 1,717.0 0.0 0.0 13.98 416 4.6 79.8 44.6 8.35 0.00 100 96.4 12.11
5/11/19 86.2 1537 43.5 0618 0.00 43.00 2.1 13.2 1626 NW | 321 46.3 100 21 1.4 1,717.0 0.0 0.0 15.13 402 1.7 84.1 44.0 9.10 0.00 100 126.2 12.14
5/10/19 86.5 1656 46.4 0616 0.00 43.00 2.7 19.4 1320 NNE | 20 38.4 100 6 0.0 1,717.0 0.0 0.0 16.23 386 5.7 83.7 46.9 10.27 0.00 100 148.5 12.11
5/9/19 83.9 1329 47.6 0621 0.00 43.00 2.0 12.9 1811 NW | 318 53.8 100 26 0.0 1,717.0 0.0 0.0 16.11 370 7.0 82.1 47.8 9.77 0.00 100 122.3 12.13
5/8/19 81.3 1446 46.7 0540 0.00 43.00 1.7 13.6 1547 SW | 236 54.5 100 39 0.0 1,717.0 0.0 0.0 14.21 354 7.8 79.5 47.1 8.71 0.00 100 96.2 12.11
5/7/19 77.3 1503 48.3 0207 0.00 43.00 1.8 13.6 1409 WNW | 282 54.1 100 44 0.0 1,717.0 0.0 0.0 11.46 340 4.3 75.8 48.4 5.88 0.00 80 55.9 12.11
5/6/19 76.3 1541 42.8 0614 0.00 43.00 2.1 14.7 1618 SE | 140 50.7 100 38 2.2 1,717.0 0.0 0.0 10.33 328 5.2 73.7 43.0 4.50 0.00 90 35.0 12.13
5/5/19 78.4 1450 40.2 0612 0.00 43.00 2.0 14.1 1610 WNW | 283 45.6 100 30 4.9 1,717.0 0.0 0.0 11.60 318 4.7 76.9 40.4 6.32 0.00 100 65.5 12.15
5/4/19 81.4 1534 39.1 0614 0.00 43.00 2.2 15.8 1333 SSW | 194 41.7 100 11 6.0 1,717.0 0.0 0.0 13.04 306 2.5 80.1 39.9 8.19 0.00 100 93.3 12.16
5/3/19 82.2 1648 39.7 0630 0.00 43.00 2.0 12.5 1231 SSE | 158 38.2 100 10 6.3 1,717.0 0.0 0.0 12.71 293 0.0 79.5 39.8 8.09 0.00 100 95.0 12.13
5/2/19 80.4 1706 35.8 0601 0.00 43.00 2.0 12.6 1835 WNW | 303 34.2 100 9 7.5 1,717.0 0.0 0.0 10.84 281 4.1 78.1 36.4 6.55 0.00 80 67.9 12.13
5/1/19 76.2 1534 37.8 0612 0.00 43.00 2.3 14.1 1203 S | 178 38.0 100 14 7.9 1,717.0 0.0 0.0 9.96 270 6.6 75.0 38.2 4.95 0.00 60 48.3 12.11
4/30/19 69.9 1451 44.4 0059 0.00 43.00 2.9 14.9 1444 S | 178 43.2 100 32 0.5 1,717.0 0.0 0.0 7.29 260 0.3 68.6 44.6 0.00 0.00 70 2.6 12.15
4/29/19 78.6 1439 46.7 0604 0.00 43.00 2.3 15.0 1646 NW | 310 50.2 100 33 0.0 1,717.0 0.0 0.0 12.26 253 6.9 77.8 47.0 7.22 0.00 80 75.1 12.15
4/28/19 81.2 1636 42.9 0610 0.00 43.00 2.5 16.0 1506 S | 170 50.1 100 28 2.2 1,717.0 0.0 0.0 13.63 240 4.8 79.6 43.5 8.18 0.00 60 95.3 12.12
4/27/19 84.7 1523 44.6 0617 0.00 43.00 2.0 14.7 1506 SSE | 159 46.6 100 23 0.6 1,717.0 0.0 0.0 14.67 227 3.5 82.7 45.2 9.19 0.00 40 122.9 12.12
4/26/19 87.2 1510 44.3 0643 0.00 43.00 1.8 13.0 1727 NNW | 328 46.5 100 18 0.7 1,717.0 0.0 0.0 15.63 212 4.3 86.2 44.4 4.46 0.00 20 149.3 12.10
4/25/19 88.6 1527 47.1 0643 0.00 43.00 1.7 11.0 1642 NNW | 342 49.1 100 17 0.0 1,717.0 0.0 0.0 17.31 196 5.9 87.7 47.6 3.94 0.00 30 172.5 12.10
4/24/19 88.4 1532 51.8 0639 0.00 43.00 1.8 11.6 1409 NNE | 15 55.0 100 20 0.0 1,717.0 0.0 0.0 19.70 179 5.6 88.1 52.0 4.74 0.00 40 187.8 12.09
Max 88.6 - 51.8 - 1.61 - 3.0 20.2 - - 55.0 100 94 8.0 - 0.0 0.0 19.70 - 24.0 88.1 52.0 10.27 0.00 100 187.8 12.16
Avg - - - - - - 2.2 - - - 47.2 - - 2.2 - 0.0 0.0 10.36 - - - - 4.64 0.00 - - -
Min 50.8 - 35.8 - 0.00 - 1.6 10.5 - - 34.2 100 6 0.0 - 0.0 0.0 0.03 - 0.0 51.0 36.4 0.00 0.00 0 0.0 11.97
Total - - - - - - - - - - - - - 67.0 - 0.0 0.0 310.73 - - - - 139.33 0.00 - - -

Upper Lake Climate Summary

Current Year

Current Year | Showing 1/1/19 - 5/23/19
as of 5/24/19 10:34 PM PDT
Temperature (°F) Precip (in) Days
Month Days Avg Max Avg Min Max Max Min Min Total Daily Min Temp < 28 Daily Min Temp < 32 Daily Max Temp > 90 Daily Max Temp > 100 Daily Rain > 0.01 Daily Rain > 0.1
Jan 2019 31 57.8 36.4 71.8 24.8 9.44 3 9 0 0 11 11
Feb 2019 28 49.6 34 57.1 23 15.92 8 12 0 0 19 16
Mar 2019 31 59.4 37.1 74 27.9 6.68 1 4 0 0 15 11
Apr 2019 30 71.5 44.9 89.7 37.6 0.94 0 0 0 0 8 2
May 2019 23 72.6 43.8 86.5 35.8 3.58 0 0 0 0 8 5
Total 143 - - - - 36.56 12 25 0 0 61 45
Average 28.6 62.2 39.3 - - 7.31 2.4 5 0 0 12.2 9
Maximum 31 72.6 44.9 89.7 - 15.92 8 12 0 0 19 16
Minimum 23 49.6 34 - 23 0.94 0 0 0 0 8 2

Upper Lake Climate Summary

Last Year

Last Year | Showing 1/1/18 - 12/31/18
as of 5/24/19 10:34 PM PDT
Temperature (°F) Precip (in) Days
Month Days Avg Max Avg Min Max Max Min Min Total Daily Min Temp < 28 Daily Min Temp < 32 Daily Max Temp > 90 Daily Max Temp > 100 Daily Rain > 0.01 Daily Rain > 0.1
Jan 2018 31 56.5 36.2 69.7 27.7 5.62 2 8 0 0 13 9
Feb 2018 28 62.4 29.1 78.7 20.6 0.9 13 19 0 0 3 2
Mar 2018 31 60.7 34 83.7 24.1 5.7 3 11 0 0 16 13
Apr 2018 30 69 39.5 84.5 30.2 4.78 0 1 0 0 8 5
May 2018 31 77.9 45.3 92.1 35.3 0.26 0 0 1 0 2 1
Jun 2018 30 86.3 47.6 97.4 37.7 0 0 0 11 0 0 0
Jul 2018 31 95.2 53.2 103.1 46.2 0 0 0 24 4 0 0
Aug 2018 31 90.9 50.3 97.2 46.6 0 0 0 18 0 0 0
Sep 2018 30 86.7 44.5 96.2 39.5 0 0 0 12 0 0 0
Oct 2018 31 77.7 40.7 85.6 31.9 1.25 0 1 0 0 4 3
Nov 2018 30 66.4 32.5 82.4 20.4 5.43 13 15 0 0 7 7
Dec 2018 31 55.2 33.6 63.7 26.1 3.34 4 14 0 0 12 7
Total 365 - - - - 27.28 35 69 66 4 65 47
Average 30.4 73.7 40.5 - - 2.27 2.9 5.8 5.5 0.3 5.4 3.9
Maximum 31 95.2 53.2 103.1 - 5.7 13 19 24 4 16 13
Minimum 28 55.2 29.1 - 20.4 0 0 0 0 0 0 0
Calm: 2.1%
Calm: 0.3%